Time;durP1;ratioP1;P1;durP2;ratioP2;P2;SDS_P1;SDS_P2;PMS_P1;PMS_P2;Temp;Humidity;BMP_temperature;BMP_pressure;BME280_temperature;BME280_humidity;BME280_pressure;Samples;Min_cycle;Max_cycle;Signal;HPM_P1;HPM_P2
2021/08/18 07:50:59;;;;;;;6.42;3.92;;;;;;;22.43;62.68;99046.31;4681844;74;86537;-82
2021/08/18 07:57:00;;;;;;;7.35;3.60;;;;;;;22.80;61.93;99052.30;4604616;75;28462;-82
2021/08/18 08:03:01;;;;;;;6.87;4.08;;;;;;;23.06;60.69;99045.59;4583338;76;28517;-82
2021/08/18 08:09:03;;;;;;;13.68;4.65;;;;;;;22.99;61.00;99048.00;4606633;75;28929;-85
2021/08/18 08:15:08;;;;;;;7.20;4.05;;;;;;;22.98;61.12;99038.16;4591855;75;28456;-83
2021/08/18 08:21:09;;;;;;;9.13;3.92;;;;;;;23.18;57.27;99045.60;4597339;75;28456;-82
2021/08/18 08:27:11;;;;;;;7.85;4.35;;;;;;;23.01;55.47;99030.67;4589209;75;28529;-80
2021/08/18 08:33:12;;;;;;;10.15;4.58;;;;;;;23.48;55.33;99026.13;4610596;75;28482;-82
2021/08/18 08:39:16;;;;;;;7.95;4.42;;;;;;;23.52;55.72;99028.47;4513450;76;28483;-83
2021/08/18 08:45:18;;;;;;;9.45;4.83;;;;;;;22.92;56.01;99022.41;4599758;75;28519;-82
2021/08/18 08:51:19;;;;;;;9.98;5.12;;;;;;;22.88;56.63;99026.09;4552025;76;28879;-83
2021/08/18 08:57:21;;;;;;;9.68;5.30;;;;;;;22.90;55.66;99012.88;4568199;76;28483;-81
2021/08/18 09:03:23;;;;;;;12.63;5.12;;;;;;;23.20;58.49;99001.63;4550388;76;28542;-82
2021/08/18 09:09:25;;;;;;;9.83;5.15;;;;;;;23.39;56.40;99007.47;4568564;76;28470;-83
2021/08/18 09:15:26;;;;;;;13.28;5.80;;;;;;;23.63;56.53;98994.70;4568054;76;28519;-83
2021/08/18 09:21:36;;;;;;;9.88;5.22;;;;;;;23.87;54.56;98998.92;4528445;76;28517;-82
2021/08/18 09:27:39;;;;;;;8.45;5.03;;;;;;;24.23;52.83;98998.41;4549584;76;28501;-83
2021/08/18 09:33:43;;;;;;;10.35;5.50;;;;;;;24.32;54.00;98986.84;4565079;76;28476;-83
2021/08/18 09:39:44;;;;;;;8.85;4.87;;;;;;;23.86;54.36;98994.56;4552470;76;28513;-83
2021/08/18 09:46:05;;;;;;;9.93;5.20;;;;;;;23.79;49.33;98990.93;4566735;76;28502;-83
2021/08/18 09:52:06;;;;;;;9.65;5.22;;;;;;;24.20;52.27;99003.97;4561166;76;28471;-84
2021/08/18 09:58:24;;;;;;;8.90;5.25;;;;;;;24.59;50.69;98994.50;4561394;76;28494;-83
2021/08/18 10:04:25;;;;;;;9.20;5.50;;;;;;;24.96;48.93;98996.03;4540306;76;28557;-83
2021/08/18 10:10:26;;;;;;;9.70;5.47;;;;;;;24.86;49.55;98995.25;4562053;76;28547;-83
2021/08/18 10:16:31;;;;;;;8.75;5.37;;;;;;;24.83;48.23;98989.59;4558494;76;28551;-82
2021/08/18 10:22:32;;;;;;;11.63;5.62;;;;;;;24.49;46.86;98988.77;4571595;76;28496;-81
2021/08/18 10:29:04;;;;;;;9.88;5.47;;;;;;;24.55;49.88;98978.41;4568900;76;28534;-79
2021/08/18 10:35:11;;;;;;;9.05;5.10;;;;;;;23.86;49.62;98980.05;4439563;76;28494;-79
2021/08/18 10:41:18;;;;;;;8.25;5.25;;;;;;;24.36;50.77;98978.19;4557696;76;28592;-83
2021/08/18 10:47:29;;;;;;;9.93;5.53;;;;;;;23.99;49.95;98963.16;4572951;77;28528;-82
2021/08/18 10:53:32;;;;;;;9.00;5.50;;;;;;;24.21;50.25;98964.97;4559380;76;28508;-84
2021/08/18 10:59:51;;;;;;;10.00;4.83;;;;;;;24.10;47.99;98961.73;4556414;76;28511;-81
2021/08/18 11:05:54;;;;;;;8.10;4.95;;;;;;;24.11;47.65;98966.67;4560611;77;28504;-80
2021/08/18 11:11:55;;;;;;;8.08;5.00;;;;;;;24.15;48.44;98950.59;4564069;76;28510;-83
2021/08/18 11:17:56;;;;;;;10.38;4.28;;;;;;;24.44;47.97;98958.72;4554292;77;28439;-84
2021/08/18 11:24:10;;;;;;;11.22;5.25;;;;;;;24.13;43.95;98967.97;4558702;76;28435;-83
2021/08/18 11:30:12;;;;;;;9.75;5.45;;;;;;;23.98;46.80;98953.31;4563086;76;28480;-83
2021/08/18 11:36:16;;;;;;;9.20;5.33;;;;;;;23.98;45.49;98948.64;4554540;76;28477;-84
2021/08/18 11:42:20;;;;;;;7.47;4.60;;;;;;;23.90;45.96;98947.52;4551101;76;28499;-83
2021/08/18 11:48:22;;;;;;;7.70;4.40;;;;;;;24.26;46.13;98947.52;4532348;76;28499;-83
2021/08/18 11:54:25;;;;;;;7.83;3.92;;;;;;;24.29;44.61;98951.80;4444328;79;28519;-81
2021/08/18 12:00:27;;;;;;;8.38;4.33;;;;;;;24.17;42.82;98939.30;4456272;78;28449;-81
2021/08/18 12:06:37;;;;;;;10.30;5.10;;;;;;;24.49;41.62;98940.67;4347968;79;28524;-81
2021/08/18 12:12:39;;;;;;;6.70;3.60;;;;;;;24.56;42.41;98940.75;4437026;78;28577;-82
2021/08/18 12:18:40;;;;;;;6.65;3.42;;;;;;;24.11;39.29;98933.16;4363208;79;28552;-80
2021/08/18 12:24:46;;;;;;;7.60;3.92;;;;;;;24.50;39.59;98934.63;4333737;80;28444;-82
2021/08/18 12:31:01;;;;;;;5.50;3.42;;;;;;;24.94;40.38;98936.44;4301950;80;28501;-79
2021/08/18 12:37:06;;;;;;;5.90;3.67;;;;;;;25.16;39.82;98934.00;4348107;80;28491;-82
2021/08/18 12:43:10;;;;;;;5.50;3.52;;;;;;;25.34;40.78;98925.86;4283787;81;28492;-80
2021/08/18 12:49:30;;;;;;;5.75;3.40;;;;;;;25.12;39.52;98928.91;4441438;78;28552;-84
2021/08/18 12:55:35;;;;;;;5.95;3.62;;;;;;;25.15;38.65;98920.02;4468026;78;28616;-79
2021/08/18 13:01:37;;;;;;;6.33;3.60;;;;;;;25.20;40.23;98915.12;4460054;78;28448;-79
2021/08/18 13:07:39;;;;;;;4.97;2.95;;;;;;;25.14;39.57;98916.45;4476255;78;28455;-78
2021/08/18 13:13:40;;;;;;;7.95;2.55;;;;;;;25.05;38.96;98906.88;4475720;78;28477;-78
2021/08/18 13:19:42;;;;;;;7.62;3.00;;;;;;;24.65;39.79;98900.31;4484529;78;28460;-79
2021/08/18 13:25:44;;;;;;;3.33;2.40;;;;;;;25.02;40.02;98900.64;4486639;77;28558;-78
2021/08/18 13:31:45;;;;;;;4.33;2.60;;;;;;;25.14;36.65;98908.75;4468489;78;28450;-77
2021/08/18 13:37:46;;;;;;;5.62;2.90;;;;;;;25.42;37.45;98893.13;4453875;78;28486;-78
2021/08/18 13:43:49;;;;;;;4.30;2.60;;;;;;;25.02;40.22;98907.52;4472057;78;28629;-78
2021/08/18 13:49:50;;;;;;;6.62;3.33;;;;;;;24.79;40.09;98887.76;4475094;78;28530;-78
2021/08/18 13:55:52;;;;;;;3.90;2.80;;;;;;;25.22;40.18;98884.52;4476667;78;28558;-79
2021/08/18 14:01:53;;;;;;;4.90;2.70;;;;;;;24.79;40.15;98893.26;4466071;78;28550;-81
2021/08/18 14:07:56;;;;;;;5.03;2.70;;;;;;;24.30;40.56;98891.59;4458007;78;28492;-82
2021/08/18 14:13:57;;;;;;;4.50;2.80;;;;;;;24.80;40.08;98887.17;4446059;78;28441;-82
2021/08/18 14:19:58;;;;;;;5.20;2.83;;;;;;;24.74;39.74;98889.27;4459662;78;28577;-78
2021/08/18 14:26:03;;;;;;;4.35;2.65;;;;;;;25.05;41.21;98897.81;4460884;78;28494;-77
2021/08/18 14:32:05;;;;;;;3.70;2.40;;;;;;;24.71;41.07;98893.48;4373313;80;28534;-78
2021/08/18 14:38:07;;;;;;;4.37;2.83;;;;;;;24.69;39.66;98890.84;4465432;79;28505;-79
2021/08/18 14:44:08;;;;;;;4.92;2.80;;;;;;;24.98;38.77;98896.95;4480218;78;28456;-76
2021/08/18 14:50:15;;;;;;;5.22;3.08;;;;;;;24.96;39.79;98896.48;4531987;76;28456;-76
2021/08/18 14:56:18;;;;;;;5.15;2.67;;;;;;;25.53;39.55;98881.20;4554080;76;28508;-77
2021/08/18 15:02:19;;;;;;;4.03;2.42;;;;;;;25.36;40.09;98871.07;4569353;76;28429;-78
2021/08/18 15:08:21;;;;;;;4.03;2.40;;;;;;;25.39;39.08;98891.06;4580143;77;28475;-82
2021/08/18 15:14:25;;;;;;;3.47;2.40;;;;;;;25.55;39.17;98886.58;4549149;77;28546;-82
2021/08/18 15:20:35;;;;;;;3.58;2.40;;;;;;;25.65;37.94;98884.56;4566838;77;28461;-82
2021/08/18 15:26:38;;;;;;;4.55;2.55;;;;;;;25.44;38.64;98879.84;4567090;76;28441;-81
2021/08/18 15:32:44;;;;;;;6.67;2.80;;;;;;;25.67;38.61;98880.34;4565486;76;28468;-82
2021/08/18 15:38:48;;;;;;;4.97;2.23;;;;;;;24.91;39.79;98890.61;4550779;77;28443;-82
2021/08/18 15:44:49;;;;;;;4.80;2.58;;;;;;;25.12;39.64;98891.78;4551280;76;28479;-82
2021/08/18 15:58:35;;;;;;;4.58;2.60;;;;;;;24.90;38.93;98892.30;4420435;77;28476;-77
2021/08/18 16:04:37;;;;;;;4.45;2.80;;;;;;;24.40;40.56;98882.19;4456814;78;28462;-80
2021/08/18 16:10:40;;;;;;;4.62;2.75;;;;;;;24.62;40.79;98883.09;4465029;78;28479;-81
2021/08/18 16:16:41;;;;;;;3.25;2.22;;;;;;;24.29;40.75;98885.05;4409395;79;28540;-82
2021/08/18 16:22:43;;;;;;;4.03;2.62;;;;;;;24.59;40.50;98883.75;4560613;76;28500;-80
2021/08/18 16:28:44;;;;;;;4.75;2.55;;;;;;;24.81;40.16;98877.23;4559058;76;28508;-81
2021/08/18 16:34:46;;;;;;;4.78;2.87;;;;;;;25.08;40.14;98880.63;4575584;77;28853;-81
2021/08/18 16:40:47;;;;;;;4.78;2.65;;;;;;;24.96;40.80;98890.17;4538672;76;28470;-80
2021/08/18 16:46:49;;;;;;;4.80;2.65;;;;;;;24.45;41.51;98882.58;4561871;77;28485;-79
2021/08/18 16:52:50;;;;;;;3.92;2.60;;;;;;;24.27;43.37;98885.39;4541336;76;28460;-78
2021/08/18 16:58:51;;;;;;;4.35;2.70;;;;;;;24.31;43.56;98874.53;4507347;77;28495;-78
2021/08/18 17:04:53;;;;;;;4.97;2.90;;;;;;;24.48;43.97;98883.32;4536864;76;28522;-79
2021/08/18 17:10:54;;;;;;;5.87;2.55;;;;;;;23.80;45.51;98883.33;4568808;77;28440;-77
2021/08/18 17:16:56;;;;;;;4.40;2.70;;;;;;;23.68;46.83;98877.11;4558222;76;28498;-81
2021/08/18 17:23:00;;;;;;;3.58;2.20;;;;;;;23.66;47.14;98894.47;4554115;76;28914;-79
2021/08/18 17:29:01;;;;;;;4.12;2.90;;;;;;;24.06;45.67;98891.58;4463811;78;28442;-78
2021/08/18 17:35:04;;;;;;;4.97;2.80;;;;;;;23.79;46.95;98890.75;4383270;79;28549;-78
2021/08/18 17:41:05;;;;;;;5.62;2.83;;;;;;;23.87;46.97;98893.23;4453597;78;28468;-79
2021/08/18 17:47:08;;;;;;;7.33;3.37;;;;;;;23.68;47.38;98899.85;4551427;76;28554;-79
2021/08/18 17:53:09;;;;;;;5.78;3.37;;;;;;;23.34;48.72;98903.39;4577951;76;28460;-78
2021/08/18 17:59:10;;;;;;;7.35;3.67;;;;;;;23.16;49.25;98907.98;4549626;76;28491;-80
2021/08/18 18:05:12;;;;;;;8.43;3.80;;;;;;;23.01;49.92;98914.16;4467850;78;28527;-78
2021/08/18 18:11:13;;;;;;;6.92;3.22;;;;;;;22.92;50.90;98914.14;4465774;78;28532;-79
2021/08/18 18:17:17;;;;;;;6.40;3.37;;;;;;;22.53;53.68;98923.37;4406674;79;28442;-79
2021/08/18 18:23:18;;;;;;;6.42;3.42;;;;;;;22.53;56.04;98929.42;4415187;79;28497;-78
2021/08/18 18:29:20;;;;;;;5.67;4.03;;;;;;;22.30;56.98;98930.80;4394559;78;28452;-77
2021/08/18 18:35:22;;;;;;;5.22;3.35;;;;;;;22.11;59.31;98926.31;4406922;79;28488;-77
2021/08/18 18:41:26;;;;;;;8.73;3.55;;;;;;;21.78;65.17;98935.30;4423880;79;28488;-80
2021/08/18 18:47:28;;;;;;;9.43;3.70;;;;;;;22.45;62.25;98935.63;4422919;79;28504;-79
2021/08/18 18:53:29;;;;;;;5.58;3.30;;;;;;;22.17;63.71;98933.02;4409460;79;28562;-79
2021/08/18 18:59:33;;;;;;;9.20;3.67;;;;;;;21.82;67.78;98928.91;4396244;79;28522;-78
2021/08/18 19:05:35;;;;;;;8.48;3.55;;;;;;;21.65;67.30;98925.97;4481119;79;28549;-79
2021/08/18 19:11:37;;;;;;;6.08;3.72;;;;;;;21.67;69.37;98932.80;4399375;79;28476;-77
2021/08/18 19:17:38;;;;;;;10.15;4.03;;;;;;;21.40;70.55;98939.09;4385262;79;28430;-78
2021/08/18 19:23:40;;;;;;;9.23;3.95;;;;;;;21.21;71.10;98938.66;4419278;78;28476;-79
2021/08/18 19:29:41;;;;;;;9.85;4.10;;;;;;;21.31;69.87;98931.61;4464667;77;28444;-79
2021/08/18 19:35:43;;;;;;;8.93;4.20;;;;;;;21.20;71.13;98936.25;4377982;79;28466;-80
2021/08/18 19:41:45;;;;;;;9.00;4.08;;;;;;;20.94;72.51;98938.11;4380451;79;28498;-79
2021/08/18 19:47:49;;;;;;;6.70;3.80;;;;;;;20.74;74.09;98942.80;4450771;77;28538;-78
2021/08/18 19:53:49;;;;;;;6.65;3.27;;;;;;;20.51;74.52;98941.84;4395849;79;28508;-78
2021/08/18 19:59:51;;;;;;;6.72;4.00;;;;;;;20.84;68.88;98945.38;4472128;78;28542;-80
2021/08/18 20:05:55;;;;;;;8.93;4.03;;;;;;;21.01;65.72;98950.82;4379056;80;28469;-79
2021/08/18 20:12:03;;;;;;;9.00;4.90;;;;;;;21.03;62.82;98946.67;4422000;78;28503;-78
2021/08/18 20:18:04;;;;;;;8.45;4.30;;;;;;;21.00;61.67;98947.84;4456784;77;28462;-79
2021/08/18 20:24:06;;;;;;;6.37;3.47;;;;;;;20.84;64.20;98941.28;4397979;79;28550;-82
2021/08/18 20:30:09;;;;;;;7.25;3.47;;;;;;;20.28;70.37;98929.40;4363104;79;28472;-82
2021/08/18 20:36:10;;;;;;;7.10;3.70;;;;;;;19.94;75.41;98934.02;4473196;79;28444;-82
2021/08/18 20:42:12;;;;;;;6.75;3.70;;;;;;;20.11;72.45;98937.59;4384301;79;28583;-84
2021/08/18 20:48:14;;;;;;;8.45;3.62;;;;;;;20.18;69.81;98942.10;4392312;79;28478;-82
2021/08/18 20:54:15;;;;;;;8.03;3.65;;;;;;;20.34;66.32;98936.41;4412503;79;28443;-83
2021/08/18 21:00:18;;;;;;;7.28;3.80;;;;;;;20.34;67.58;98939.14;4396635;80;28467;-80
2021/08/18 21:06:22;;;;;;;6.50;3.60;;;;;;;20.10;70.75;98942.80;4378993;79;28471;-81
2021/08/18 21:12:23;;;;;;;6.72;3.50;;;;;;;19.44;76.87;98931.70;4424636;79;28485;-83
2021/08/18 21:18:25;;;;;;;6.75;3.17;;;;;;;19.45;76.89;98922.41;4414971;79;28478;-83
2021/08/18 21:24:26;;;;;;;5.42;2.92;;;;;;;19.47;76.91;98923.74;4421859;80;28468;-81
2021/08/18 21:30:27;;;;;;;7.62;3.87;;;;;;;19.44;76.58;98922.98;4422995;79;28483;-81
2021/08/18 21:36:32;;;;;;;5.30;3.33;;;;;;;19.60;72.87;98919.48;4410682;79;28537;-83
2021/08/18 21:42:34;;;;;;;6.53;3.40;;;;;;;19.54;73.65;98919.28;4414736;79;28506;-82
2021/08/18 21:48:38;;;;;;;5.92;3.20;;;;;;;19.62;73.39;98923.27;4412515;79;28558;-81
2021/08/18 21:54:41;;;;;;;6.15;3.80;;;;;;;19.78;71.52;98921.13;4551470;76;28482;-81
2021/08/18 22:00:42;;;;;;;4.90;2.80;;;;;;;19.64;71.79;98927.33;4576884;76;28567;-80
2021/08/18 22:06:44;;;;;;;4.17;2.55;;;;;;;19.85;71.64;98930.33;4521051;77;28508;-82
2021/08/18 22:12:48;;;;;;;5.78;2.95;;;;;;;19.91;70.88;98919.58;4522426;79;28559;-81
2021/08/18 22:18:51;;;;;;;6.07;3.30;;;;;;;19.95;70.37;98920.66;4522829;79;28470;-80
2021/08/18 22:24:52;;;;;;;7.10;3.50;;;;;;;19.99;70.13;98929.86;4522350;79;28502;-80
2021/08/18 22:30:54;;;;;;;5.42;3.20;;;;;;;19.85;70.28;98927.03;4522085;77;28465;-79
2021/08/18 22:36:56;;;;;;;6.00;2.75;;;;;;;19.98;69.54;98924.14;4521286;79;28548;-80
2021/08/18 22:42:57;;;;;;;5.62;2.98;;;;;;;19.90;70.35;98926.97;4520627;79;28531;-81
2021/08/18 22:48:59;;;;;;;5.72;2.70;;;;;;;20.08;70.52;98912.81;4582894;77;28497;-80
2021/08/18 22:55:00;;;;;;;4.58;2.67;;;;;;;20.16;69.91;98909.41;4339904;80;28542;-80
2021/08/18 23:01:01;;;;;;;5.22;2.87;;;;;;;20.12;70.85;98903.73;4535630;77;28594;-80
2021/08/18 23:07:05;;;;;;;5.65;3.02;;;;;;;20.02;70.13;98899.81;4334560;82;28507;-79
2021/08/18 23:13:06;;;;;;;6.83;2.90;;;;;;;19.91;71.00;98906.77;4363879;81;28469;-80
2021/08/18 23:19:07;;;;;;;5.75;3.10;;;;;;;19.86;72.15;98908.19;4339515;80;28609;-79
2021/08/18 23:25:11;;;;;;;4.37;2.52;;;;;;;19.89;70.75;98906.80;4583927;77;28503;-79
2021/08/18 23:31:12;;;;;;;4.67;2.12;;;;;;;19.80;72.49;98913.48;4584193;77;28507;-79
2021/08/18 23:37:14;;;;;;;3.75;2.40;;;;;;;19.97;70.19;98904.79;4584602;77;28462;-79
2021/08/18 23:43:16;;;;;;;3.40;2.27;;;;;;;19.89;70.64;98910.34;4584447;77;28480;-80
2021/08/18 23:49:17;;;;;;;5.30;2.62;;;;;;;20.00;68.96;98907.48;4589819;77;28455;-78
2021/08/18 23:55:18;;;;;;;3.42;2.22;;;;;;;20.16;67.87;98917.60;4590645;77;28505;-80
